Bodorgan, United Kingdom
Current Conditions -  °F | °C
As of 4:50 PM on Friday 19 Dec 2014 (Local Time) from EGOV Reporting Station
Few Clouds Few Clouds  
Wind Chill: 38°   Ceiling: Unl
Heat Index: 46°   Visibility: 6mi
Dew Point: 37°   Wind: 23mph
Humidity: 71%   Direction: 260°W
Pressure: 30.06"   Gusts: 36mph
Location:  53.2°N, 4.4°W
Report Text: EGOV 191650Z 26020G31KT 9999 FEW030 08/03 Q1018 BLU NOSIG
Loading
Personal Weather Stations






























Interactive Weather Map New forecast layout! Learn more

10-Day Weather Forecast

Advertisements
Track Severe Weather on mobile